createdAt,value
2019-06-20T00:00:26.569Z,41.58
2019-06-20T00:05:46.224Z,43.55
2019-06-20T00:08:18.022Z,40.35
2019-06-20T00:11:03.524Z,40.40
2019-06-20T00:14:00.402Z,39.55
2019-06-20T00:26:22.428Z,49.63
2019-06-20T00:28:55.239Z,49.80
2019-06-20T00:31:24.332Z,47.65
2019-06-20T00:33:54.922Z,51.68
2019-06-20T00:36:39.158Z,51.73
2019-06-20T00:39:17.545Z,47.43
2019-06-20T00:45:28.945Z,51.68
2019-06-20T00:51:02.012Z,50.98
2019-06-20T00:57:03.894Z,51.70
2019-06-20T00:59:33.887Z,49.88
2019-06-20T01:03:13.340Z,48.38
2019-06-20T01:05:41.179Z,55.10
2019-06-20T01:08:09.753Z,56.58
2019-06-20T01:24:43.573Z,51.63
2019-06-20T02:13:45.539Z,48.35
2019-06-20T02:19:34.690Z,52.08
2019-06-20T02:21:58.870Z,49.18
2019-06-20T02:33:46.144Z,45.08
2019-06-20T02:37:42.198Z,50.90
2019-06-20T02:41:54.734Z,44.15
2019-06-20T02:44:29.123Z,45.15
2019-06-20T02:46:53.399Z,43.52
2019-06-20T02:49:33.627Z,46.20
2019-06-20T03:01:21.035Z,44.33
2019-06-20T03:03:54.652Z,44.50
2019-06-20T03:09:25.572Z,48.40
2019-06-20T03:12:00.327Z,45.20
2019-06-20T03:17:40.202Z,36.93
2019-06-20T03:20:18.127Z,37.00
2019-06-20T03:23:28.436Z,41.53
2019-06-20T03:31:51.160Z,36.93
2019-06-20T03:34:28.242Z,37.73
2019-06-20T03:37:01.427Z,44.83
2019-06-20T03:40:05.731Z,39.55
2019-06-20T03:42:27.939Z,33.45
2019-06-20T03:45:02.292Z,33.58
2019-06-20T03:56:38.802Z,36.45
2019-06-20T04:02:37.152Z,34.70
2019-06-20T04:08:38.603Z,32.73
2019-06-20T04:14:53.593Z,31.15
2019-06-20T05:53:46.954Z,21.95
2019-06-20T06:06:53.423Z,20.27
2019-06-20T06:09:23.879Z,24.07
2019-06-20T06:11:55.747Z,22.55
2019-06-20T06:14:26.401Z,19.70
2019-06-20T06:16:55.211Z,20.60
2019-06-20T06:19:27.074Z,19.57
2019-06-20T06:21:56.549Z,20.88
2019-06-20T06:24:25.489Z,19.27
2019-06-20T06:26:59.332Z,20.30
2019-06-20T06:29:25.057Z,23.85
2019-06-20T06:31:53.774Z,21.37
2019-06-20T06:34:23.704Z,19.85
2019-06-20T06:36:55.195Z,23.85
2019-06-20T06:39:24.064Z,22.27
2019-06-20T06:41:53.022Z,20.08
2019-06-20T06:44:22.474Z,19.40
2019-06-20T06:46:55.387Z,21.20
2019-06-20T06:49:22.157Z,24.35
2019-06-20T06:51:50.946Z,22.05
2019-06-20T06:54:20.037Z,22.22
2019-06-20T06:56:49.949Z,21.33
2019-06-20T06:59:18.850Z,20.75
2019-06-20T07:01:48.260Z,24.10
2019-06-20T07:04:17.025Z,22.10
2019-06-20T07:06:46.338Z,20.77
2019-06-20T07:09:15.265Z,19.90
2019-06-20T07:11:44.098Z,19.07
2019-06-20T07:14:12.854Z,22.00
2019-06-20T07:16:41.775Z,21.77
2019-06-20T07:19:10.686Z,23.65
2019-06-20T07:21:39.535Z,21.75
2019-06-20T07:24:08.374Z,23.00
2019-06-20T07:26:37.363Z,24.63
2019-06-20T07:29:06.235Z,24.65
2019-06-20T07:31:35.096Z,22.85
2019-06-20T07:34:04.238Z,21.35
2019-06-20T07:36:33.112Z,19.48
2019-06-20T07:39:02.033Z,21.20
2019-06-20T07:41:30.805Z,19.82
2019-06-20T07:43:59.611Z,22.42
2019-06-20T07:46:28.532Z,23.70
2019-06-20T07:48:57.239Z,21.97
2019-06-20T07:51:25.982Z,18.55
2019-06-20T07:53:54.787Z,20.32
2019-06-20T07:56:23.525Z,19.40
2019-06-20T07:59:27.391Z,17.87
2019-06-20T08:02:22.070Z,18.35
2019-06-20T08:04:46.796Z,17.73
2019-06-20T08:07:17.380Z,17.95
2019-06-20T08:09:46.303Z,20.08
2019-06-20T08:12:15.194Z,17.98
2019-06-20T08:14:44.133Z,16.37
2019-06-20T08:20:33.978Z,22.05
2019-06-20T08:23:02.925Z,18.70
2019-06-20T08:25:31.929Z,22.25
2019-06-20T08:28:02.338Z,19.95
2019-06-20T08:30:34.014Z,16.37
2019-06-20T08:33:07.454Z,17.52
2019-06-20T08:35:33.868Z,18.23
2019-06-20T08:38:07.073Z,18.55
2019-06-20T08:40:39.232Z,17.45
2019-06-20T08:43:08.340Z,17.42
2019-06-20T08:45:38.757Z,18.37
2019-06-20T08:48:09.502Z,19.67
2019-06-20T08:50:44.224Z,19.02
2019-06-20T08:53:13.288Z,20.90
2019-06-20T08:55:42.471Z,17.60
2019-06-20T08:58:16.008Z,16.42
2019-06-20T09:00:45.217Z,18.75
2019-06-20T09:03:15.720Z,18.15
2019-06-20T09:05:44.612Z,20.40
2019-06-20T09:08:13.527Z,18.42
2019-06-20T09:10:42.947Z,18.25
2019-06-20T09:13:13.179Z,17.95
2019-06-20T09:15:42.711Z,15.85
2019-06-20T09:18:12.087Z,17.80
2019-06-20T09:20:41.555Z,18.75
2019-06-20T09:23:13.596Z,21.60
2019-06-20T09:25:45.783Z,20.37
2019-06-20T09:28:55.652Z,19.98
2019-06-20T09:31:01.455Z,20.95
2019-06-20T09:33:30.715Z,17.23
2019-06-20T09:36:32.873Z,20.95
2019-06-20T09:38:41.239Z,19.67
2019-06-20T09:41:31.557Z,20.90
2019-06-20T09:44:03.633Z,16.80
2019-06-20T09:46:34.129Z,20.68
2019-06-20T09:49:04.826Z,20.08
2019-06-20T09:51:41.498Z,22.65
2019-06-20T09:57:10.387Z,19.42
2019-06-20T09:59:30.887Z,19.02
2019-06-20T10:02:04.701Z,20.97
2019-06-20T10:04:49.494Z,18.95
2019-06-20T10:07:27.415Z,19.48
2019-06-20T10:10:07.724Z,20.92
2019-06-20T10:12:34.924Z,24.12
2019-06-20T10:18:04.458Z,21.27
2019-06-20T10:20:41.256Z,19.70
2019-06-20T10:23:12.908Z,20.72
2019-06-20T10:28:36.798Z,23.98
2019-06-20T10:31:07.751Z,17.82
2019-06-20T10:33:41.457Z,21.90
2019-06-20T10:36:24.237Z,21.30
2019-06-20T10:39:14.336Z,19.00
2019-06-20T10:41:44.796Z,26.20
2019-06-20T10:44:14.505Z,22.55
2019-06-20T10:47:11.774Z,18.60
2019-06-20T10:49:33.160Z,19.07
2019-06-20T10:52:06.581Z,19.23
2019-06-20T10:54:41.817Z,16.97
2019-06-20T10:57:29.311Z,18.60
2019-06-20T11:00:05.441Z,16.05
2019-06-20T11:04:58.346Z,16.42
2019-06-20T11:13:00.673Z,17.73
2019-06-20T11:14:01.749Z,20.55
2019-06-20T11:15:31.100Z,19.32
2019-06-20T11:19:29.037Z,19.98
2019-06-20T11:20:55.452Z,18.42
2019-06-20T11:25:59.382Z,15.75
2019-06-20T11:28:42.946Z,17.23
2019-06-20T11:31:09.104Z,20.75
2019-06-20T11:33:52.164Z,15.08
2019-06-20T11:39:03.868Z,16.23
2019-06-20T11:58:47.113Z,17.45
2019-06-20T12:01:32.983Z,17.85
2019-06-20T12:03:55.354Z,18.45
2019-06-20T12:06:36.134Z,18.60
2019-06-20T12:09:13.492Z,15.28
2019-06-20T12:11:44.526Z,13.62
2019-06-20T12:14:13.477Z,16.25
2019-06-20T12:16:42.424Z,14.98
2019-06-20T12:19:11.809Z,17.32
2019-06-20T12:21:42.647Z,15.85
2019-06-20T12:24:11.289Z,15.20
2019-06-20T12:26:53.965Z,16.45
2019-06-20T12:29:22.997Z,16.70
2019-06-20T12:31:56.352Z,14.40
2019-06-20T12:34:26.146Z,15.25
2019-06-20T12:36:57.776Z,13.62
2019-06-20T12:39:52.370Z,16.15
2019-06-20T12:42:06.487Z,13.10
2019-06-20T12:45:13.217Z,14.75
2019-06-20T12:47:14.457Z,13.05
2019-06-20T12:50:34.691Z,16.35
2019-06-20T12:52:21.057Z,11.00
2019-06-20T12:54:53.579Z,13.30
2019-06-20T12:57:28.600Z,12.53
2019-06-20T12:59:59.124Z,13.25
2019-06-20T13:02:49.794Z,12.98
2019-06-20T13:05:12.757Z,12.25
2019-06-20T13:07:38.683Z,13.28
2019-06-20T13:10:11.170Z,11.30
2019-06-20T13:12:44.319Z,11.10
2019-06-20T13:15:14.179Z,11.45
2019-06-20T13:17:43.687Z,12.80
2019-06-20T13:20:15.473Z,10.68
2019-06-20T13:22:49.524Z,10.90
2019-06-20T13:25:18.787Z,12.43
2019-06-20T13:28:13.679Z,15.70
2019-06-20T13:30:31.370Z,13.95
2019-06-20T13:33:01.876Z,10.93
2019-06-20T13:35:41.976Z,11.05
2019-06-20T13:38:13.888Z,11.20
2019-06-20T13:40:49.368Z,12.10
2019-06-20T13:43:16.310Z,11.28
2019-06-20T13:49:34.390Z,11.50
2019-06-20T13:54:43.431Z,14.20
2019-06-20T13:57:55.617Z,11.03
2019-06-20T14:05:33.694Z,10.28
2019-06-20T14:10:58.278Z,11.10
2019-06-20T14:13:27.170Z,15.08
2019-06-20T14:15:55.961Z,10.85
2019-06-20T14:18:24.836Z,11.88
2019-06-20T14:20:55.164Z,13.95
2019-06-20T14:24:11.385Z,17.30
2019-06-20T14:26:25.895Z,15.20
2019-06-20T14:28:44.354Z,11.50
2019-06-20T14:31:13.397Z,11.85
2019-06-20T14:33:43.046Z,12.35
2019-06-20T14:36:12.967Z,11.10
2019-06-20T14:38:45.715Z,15.13
2019-06-20T14:41:14.321Z,13.78
2019-06-20T14:43:44.712Z,14.63
2019-06-20T14:46:18.508Z,12.13
2019-06-20T14:48:50.197Z,11.50
2019-06-20T14:51:26.195Z,11.43
2019-06-20T14:53:52.690Z,9.95
2019-06-20T14:56:21.794Z,12.25
2019-06-20T14:58:51.561Z,11.38
2019-06-20T15:01:28.667Z,11.95
2019-06-20T15:04:07.864Z,12.93
2019-06-20T15:06:36.751Z,11.48
2019-06-20T15:09:07.634Z,10.28
2019-06-20T15:11:54.960Z,10.55
2019-06-20T15:15:12.563Z,9.95
2019-06-20T15:33:12.248Z,8.40
2019-06-20T15:39:24.755Z,10.40
2019-06-20T15:55:22.065Z,8.60
2019-06-20T16:04:10.956Z,9.28
2019-06-20T16:06:57.096Z,8.43
2019-06-20T16:09:23.349Z,9.45
2019-06-20T16:11:58.728Z,9.43
2019-06-20T16:14:34.397Z,7.55
2019-06-20T16:17:13.471Z,7.97
2019-06-20T16:19:52.974Z,7.17
2019-06-20T16:22:26.545Z,7.87
2019-06-20T16:25:11.840Z,7.25
2019-06-20T16:27:48.520Z,7.50
2019-06-20T16:30:18.791Z,9.10
2019-06-20T16:32:50.196Z,10.88
2019-06-20T16:37:09.218Z,9.25
2019-06-20T16:38:05.198Z,8.60
2019-06-20T16:40:49.065Z,11.08
2019-06-20T16:43:18.077Z,10.30
2019-06-20T16:45:52.238Z,8.15
2019-06-20T16:48:27.210Z,14.45
2019-06-20T16:50:51.903Z,9.90
2019-06-20T16:53:36.595Z,11.40
2019-06-20T16:56:01.496Z,9.83
2019-06-20T16:58:30.400Z,8.40
2019-06-20T17:01:00.871Z,10.75
2019-06-20T17:05:26.092Z,13.03
2019-06-20T17:06:29.986Z,8.25
2019-06-20T17:09:02.113Z,11.68
2019-06-20T17:15:00.262Z,8.05
2019-06-20T17:17:30.639Z,9.70
2019-06-20T17:19:59.951Z,9.08
2019-06-20T17:22:29.954Z,9.18
2019-06-20T17:24:58.895Z,10.45
2019-06-20T17:27:28.222Z,12.45
2019-06-20T17:30:02.032Z,9.53
2019-06-20T17:32:34.787Z,15.25
2019-06-20T17:35:05.264Z,13.00
2019-06-20T17:37:36.162Z,9.58
2019-06-20T17:40:09.658Z,11.55
2019-06-20T17:42:50.538Z,11.57
2019-06-20T17:45:24.570Z,11.70
2019-06-20T17:47:57.483Z,11.50
2019-06-20T17:50:34.517Z,12.50
2019-06-20T17:53:03.707Z,11.30
2019-06-20T17:55:38.466Z,9.48
2019-06-20T17:58:28.136Z,10.75
2019-06-20T18:01:00.558Z,11.45
2019-06-20T18:03:30.901Z,11.93
2019-06-20T18:05:59.893Z,10.68
2019-06-20T18:08:34.174Z,9.18
2019-06-20T18:11:05.099Z,9.10
2019-06-20T18:13:33.736Z,11.22
2019-06-20T18:16:02.727Z,11.48
2019-06-20T18:18:34.157Z,11.45
2019-06-20T18:21:02.996Z,12.75
2019-06-20T18:23:31.868Z,15.93
2019-06-20T18:26:03.683Z,9.95
2019-06-20T18:28:32.722Z,12.18
2019-06-20T18:31:01.997Z,11.12
2019-06-20T18:33:30.768Z,13.95
2019-06-20T18:36:01.036Z,13.40
2019-06-20T18:38:31.356Z,11.45
2019-06-20T18:41:00.365Z,13.48
2019-06-20T18:43:29.344Z,13.18
2019-06-20T18:45:58.145Z,11.88
2019-06-20T18:48:31.705Z,10.68
2019-06-20T18:51:09.693Z,13.80
2019-06-20T18:53:38.744Z,13.00
2019-06-20T18:56:07.517Z,11.65
2019-06-20T18:58:36.240Z,13.68
2019-06-20T19:01:05.285Z,12.40
2019-06-20T19:03:39.174Z,12.18
2019-06-20T19:06:08.001Z,13.38
2019-06-20T19:09:06.570Z,14.15
2019-06-20T19:11:10.957Z,15.23
2019-06-20T19:13:41.578Z,14.50
2019-06-20T19:16:13.401Z,14.95
2019-06-20T19:18:42.295Z,16.12
2019-06-20T19:21:11.430Z,15.30
2019-06-20T19:23:40.206Z,17.12
2019-06-20T19:26:10.710Z,14.28
2019-06-20T19:28:39.488Z,14.50
2019-06-20T19:31:08.298Z,15.75
2019-06-20T19:33:37.071Z,15.93
2019-06-20T19:36:08.994Z,14.75
2019-06-20T19:38:39.438Z,17.37
2019-06-20T19:41:08.595Z,16.67
2019-06-20T19:43:37.444Z,17.30
2019-06-20T19:46:06.258Z,14.95
2019-06-20T19:48:38.268Z,13.62
2019-06-20T19:51:07.215Z,16.45
2019-06-20T19:53:36.062Z,13.85
2019-06-20T19:56:04.924Z,15.18
2019-06-20T19:58:41.712Z,14.58
2019-06-20T20:01:14.550Z,15.83
2019-06-20T20:03:47.001Z,14.87
2019-06-20T20:06:13.349Z,17.42
2019-06-20T20:08:44.328Z,14.65
2019-06-20T20:11:12.885Z,14.90
2019-06-20T20:13:43.585Z,13.98
2019-06-20T20:16:12.364Z,19.60
2019-06-20T20:18:58.867Z,16.42
2019-06-20T20:21:20.855Z,17.15
2019-06-20T20:23:53.338Z,14.63
2019-06-20T20:26:23.740Z,17.00
2019-06-20T20:28:52.675Z,15.05
2019-06-20T20:31:21.522Z,18.82
2019-06-20T20:33:50.310Z,16.23
2019-06-20T20:36:24.901Z,18.20
2019-06-20T20:38:49.649Z,22.62
2019-06-20T20:41:18.859Z,16.30
2019-06-20T20:46:44.453Z,15.25
2019-06-20T20:50:27.027Z,18.10
2019-06-20T20:51:51.034Z,16.32
2019-06-20T20:54:19.997Z,16.57
2019-06-20T20:56:50.522Z,18.30
2019-06-20T20:59:19.578Z,16.50
2019-06-20T21:01:49.326Z,16.77
2019-06-20T21:04:18.087Z,20.17
2019-06-20T21:06:47.011Z,16.12
2019-06-20T21:09:19.561Z,16.95
2019-06-20T21:12:07.237Z,17.57
2019-06-20T21:14:49.522Z,21.35
2019-06-20T21:17:19.952Z,17.67
2019-06-20T21:19:51.143Z,16.67
2019-06-20T21:22:31.113Z,19.67
2019-06-20T21:25:06.040Z,18.55
2019-06-20T21:30:32.032Z,18.32
2019-06-20T21:35:10.996Z,20.25
2019-06-20T21:35:41.087Z,22.15
2019-06-20T22:15:01.510Z,9.30
2019-06-20T22:28:41.963Z,13.58
2019-06-20T22:32:27.240Z,13.60
2019-06-20T23:12:04.625Z,12.63
2019-06-20T23:26:57.520Z,16.42
2019-06-20T23:30:12.746Z,12.45
2019-06-20T23:32:20.081Z,12.73
2019-06-20T23:44:55.834Z,11.70
2019-06-20T23:46:11.261Z,16.23
2019-06-20T23:48:50.731Z,14.05
